Schumacher, Canada
Current Conditions -  °F | °C
As of 4:00 AM on Monday 22 Dec 2014 (Local Time) from CYTS Reporting Station
Light Snow Light Snow  
Wind Chill: 17°   Ceiling: 1100
Heat Index: 27°   Visibility: 15mi
Dew Point: 23°   Wind: 9mph
Humidity: 86%   Direction: 170°S
Pressure: 30.09"   Gusts: NA
Location:  48.48°N, 81.3°W
Report Text: CYTS 220900Z 17008KT 15SM -SN BKN011 OVC039 M03/M05 A3009 RMK SC6SC2 SLP208
Loading
Personal Weather Stations






























Interactive Weather Map New forecast layout! Learn more

10-Day Weather Forecast

Advertisements
Track Severe Weather on mobile